createdAt,value
2018-03-07T00:00:29.824Z,27.9
2018-03-07T00:04:57.864Z,706.1
2018-03-07T00:10:31.095Z,440.1
2018-03-07T00:14:55.804Z,999.9
2018-03-07T00:20:27.366Z,563.5
2018-03-07T00:24:54.193Z,658.4
2018-03-07T00:30:28.899Z,529.3
2018-03-07T00:40:12.096Z,221.6
2018-03-07T09:41:59.161Z,3.7
2018-03-07T09:46:25.171Z,4.2
2018-03-07T09:51:54.888Z,4.3
2018-03-07T09:56:18.890Z,5.9
2018-03-07T10:06:21.191Z,8.1
2018-03-07T10:11:53.862Z,11.5
2018-03-07T10:16:17.969Z,12.2
2018-03-07T10:26:14.133Z,14.8
2018-03-07T10:36:13.308Z,15.6
2018-03-07T10:41:45.254Z,16.7
2018-03-07T10:46:14.098Z,16.7
2018-03-07T10:51:44.240Z,16.8
2018-03-07T10:56:09.571Z,17.7
2018-03-07T11:07:11.898Z,12.3
2018-03-07T11:17:11.191Z,27.2
2018-03-07T12:09:45.210Z,5
2018-03-07T12:12:22.329Z,4.9
2018-03-07T12:16:48.501Z,5.4
2018-03-07T12:26:52.732Z,5.1
2018-03-07T12:32:31.780Z,5.1
2018-03-07T12:36:59.296Z,4.7
2018-03-07T12:42:38.764Z,8.6
2018-03-07T12:57:15.696Z,4.5
2018-03-07T13:01:41.248Z,4.1
2018-03-07T13:11:40.641Z,3.7
2018-03-07T13:25:56.659Z,818.6
2018-03-07T13:38:32.363Z,13.7
2018-03-07T13:43:19.085Z,15.2
2018-03-07T13:48:05.977Z,14.7
2018-03-07T13:57:42.467Z,16.3
2018-03-07T14:03:39.458Z,16.7
2018-03-07T14:08:26.562Z,16.6
2018-03-07T14:13:11.444Z,16.1
2018-03-07T14:17:58.385Z,16.3
2018-03-07T14:22:45.270Z,14
2018-03-07T14:28:35.977Z,13.6
2018-03-07T14:33:15.019Z,13.8
2018-03-07T14:37:54.121Z,14.4
2018-03-07T14:43:42.804Z,13.6
2018-03-07T14:48:21.758Z,13.5
2018-03-07T14:53:00.718Z,12.4
2018-03-07T14:57:39.618Z,12.2
2018-03-07T15:08:11.474Z,10
2018-03-07T15:12:50.470Z,9.8
2018-03-07T15:17:31.508Z,7.4
2018-03-07T15:23:22.149Z,7.6
2018-03-07T15:28:05.107Z,7.9
2018-03-07T15:32:45.899Z,6.6
2018-03-07T15:38:36.555Z,5.2
2018-03-07T15:43:19.705Z,5.4
2018-03-07T15:48:04.504Z,5.3
2018-03-07T15:52:43.371Z,6.8
2018-03-07T15:57:28.253Z,6.3
2018-03-07T16:03:19.074Z,5.7
2018-03-07T16:07:59.843Z,5.3
2018-03-07T16:12:40.827Z,5.1
2018-03-07T16:17:23.983Z,6.4
2018-03-07T16:23:20.814Z,7.5
2018-03-07T16:28:01.936Z,7.8
2018-03-07T16:32:44.927Z,8.1
2018-03-07T16:37:27.752Z,8.8
2018-03-07T16:43:16.127Z,8.6
2018-03-07T16:47:56.012Z,8.5
2018-03-07T16:52:39.034Z,8.4
2018-03-07T17:03:14.463Z,8.5
2018-03-07T17:07:58.067Z,7.5
2018-03-07T17:12:38.969Z,7.2
2018-03-07T17:17:21.991Z,7.8
2018-03-07T17:23:16.518Z,6.9
2018-03-07T17:27:59.325Z,6.7
2018-03-07T17:32:46.276Z,6.7
2018-03-07T17:37:29.269Z,6.1
2018-03-07T17:42:14.165Z,6.1
2018-03-07T17:48:10.920Z,6.4
2018-03-07T17:52:57.683Z,4.6
2018-03-07T17:57:42.847Z,3.6
2018-03-07T18:02:28.101Z,3.1
2018-03-07T18:07:12.909Z,3
2018-03-07T18:13:09.631Z,3.2
2018-03-07T18:17:50.646Z,4.1
2018-03-07T18:22:33.086Z,2.9
2018-03-07T18:27:11.847Z,2.6
2018-03-07T18:33:02.501Z,2.7
2018-03-07T18:37:41.621Z,2.5
2018-03-07T18:42:20.537Z,2.4
2018-03-07T18:48:11.001Z,2.3
2018-03-07T18:52:50.082Z,2.3
2018-03-07T18:57:29.149Z,2.3
2018-03-07T19:08:04.883Z,2.1
2018-03-07T19:12:44.021Z,2.2
2018-03-07T19:17:23.013Z,2.3
2018-03-07T19:23:13.715Z,2.2
2018-03-07T19:27:54.746Z,2.1
2018-03-07T19:32:35.812Z,2
2018-03-07T19:37:16.777Z,2.3
2018-03-07T19:43:05.547Z,2
2018-03-07T19:47:48.522Z,1.9
2018-03-07T19:52:29.643Z,2.1
2018-03-07T19:57:12.641Z,1.8
2018-03-07T20:03:02.156Z,2
2018-03-07T20:07:42.858Z,2
2018-03-07T20:12:23.631Z,1.8
2018-03-07T20:23:07.234Z,1.9
2018-03-07T20:27:48.354Z,1.8
2018-03-07T20:32:33.410Z,1.7
2018-03-07T20:37:16.337Z,2.3
2018-03-07T20:43:12.367Z,1.9
2018-03-07T20:47:57.163Z,2
2018-03-07T20:52:39.376Z,2
2018-03-07T20:57:23.687Z,2
2018-03-07T21:02:07.894Z,1.8
2018-03-07T21:08:06.451Z,1.9
2018-03-07T21:12:51.470Z,1.9
2018-03-07T21:17:38.835Z,1.8
2018-03-07T21:22:23.703Z,2
2018-03-07T21:33:04.450Z,2.1
2018-03-07T21:37:49.302Z,2.7
2018-03-07T21:47:22.722Z,2.8
2018-03-07T21:52:07.046Z,3.1
2018-03-07T21:58:05.043Z,2.7
2018-03-07T22:02:51.897Z,2.4
2018-03-07T22:07:30.788Z,2.6
2018-03-07T22:12:11.739Z,2.6
2018-03-07T22:18:00.290Z,2.2
2018-03-07T22:22:41.304Z,2.2
2018-03-07T22:27:20.321Z,2.2
2018-03-07T22:32:01.308Z,2
2018-03-07T22:37:49.713Z,2
2018-03-07T22:42:30.600Z,2
2018-03-07T22:47:09.360Z,2
2018-03-07T22:52:57.927Z,2.2
2018-03-07T22:57:40.731Z,2.2
2018-03-07T23:02:19.548Z,2.1
2018-03-07T23:12:48.765Z,1.8
2018-03-07T23:17:29.589Z,2
2018-03-07T23:22:09.867Z,2.2
2018-03-07T23:28:00.508Z,1.9
2018-03-07T23:32:45.505Z,1.8
2018-03-07T23:37:26.580Z,1.9
2018-03-07T23:42:09.593Z,1.8
2018-03-07T23:48:02.277Z,1.9
2018-03-07T23:52:45.194Z,2
2018-03-07T23:57:23.824Z,1.8
